Time;durP1;ratioP1;P1;durP2;ratioP2;P2;SDS_P1;SDS_P2;PMS_P1;PMS_P2;Temp;Humidity;BMP_temperature;BMP_pressure;BME280_temperature;BME280_humidity;BME280_pressure;Samples;Min_cycle;Max_cycle;Signal;HPM_P1;HPM_P2
2021/01/15 00:01:40;;;;;;;17.23;10.72;;;;;;;-2.78;61.95;98244.62;1794527;79;21134;-42
2021/01/15 00:04:08;;;;;;;20.17;11.10;;;;;;;-2.74;62.12;98245.58;1718158;82;21380;-42
2021/01/15 00:06:36;;;;;;;17.27;10.70;;;;;;;-2.69;61.88;98248.91;1794459;79;21155;-43
2021/01/15 00:09:05;;;;;;;19.57;11.08;;;;;;;-2.75;62.03;98250.64;1799583;79;20969;-42
2021/01/15 00:11:34;;;;;;;20.35;10.70;;;;;;;-2.79;62.16;98262.94;1788071;79;21124;-43
2021/01/15 00:14:03;;;;;;;17.82;10.53;;;;;;;-2.79;62.46;98251.78;1794644;79;21166;-43
2021/01/15 00:16:33;;;;;;;23.80;11.97;;;;;;;-2.69;62.50;98263.50;1733293;82;21568;-43
2021/01/15 00:19:04;;;;;;;20.43;10.63;;;;;;;-2.61;62.24;98263.31;1746190;80;21615;-43
2021/01/15 00:21:35;;;;;;;19.05;10.58;;;;;;;-2.57;62.11;98268.83;1748615;81;21186;-43
2021/01/15 00:24:05;;;;;;;16.07;9.78;;;;;;;-2.57;61.75;98265.64;1746378;80;21589;-43
2021/01/15 00:26:34;;;;;;;;;;;;;;;-2.61;60.73;98263.31;1748289;80;21164;-42
2021/01/15 00:29:02;;;;;;;19.32;10.98;;;;;;;-2.73;60.91;98270.49;1761293;80;22248;-43
2021/01/15 00:31:37;;;;;;;17.52;10.43;;;;;;;-2.89;61.13;98273.76;1759669;81;21194;-43
2021/01/15 00:34:07;;;;;;;17.75;10.48;;;;;;;-2.98;61.30;98272.89;1743823;81;21124;-43
2021/01/15 00:36:38;;;;;;;18.87;9.93;;;;;;;-2.98;61.32;98280.84;1725075;82;21162;-43
2021/01/15 00:39:08;;;;;;;19.17;10.82;;;;;;;-2.98;61.36;98275.55;1733803;81;21179;-43
2021/01/15 00:41:36;;;;;;;;;;;;;;;-2.93;61.15;98279.42;1782187;79;21178;-42
2021/01/15 00:44:06;;;;;;;17.35;9.65;;;;;;;-2.99;61.20;98279.27;1773519;79;20545;-43
2021/01/15 00:46:34;;;;;;;17.92;10.20;;;;;;;-3.09;61.61;98274.42;1803891;79;21174;-43
2021/01/15 00:49:08;;;;;;;18.48;10.15;;;;;;;-3.08;61.66;98277.86;1739222;82;21186;-43
2021/01/15 00:51:37;;;;;;;17.25;10.48;;;;;;;-3.02;61.71;98277.22;1775962;79;21131;-43
2021/01/15 00:54:06;;;;;;;15.05;8.63;;;;;;;-3.00;61.71;98279.05;1788893;79;22112;-43
2021/01/15 00:56:36;;;;;;;19.57;10.98;;;;;;;-3.04;62.07;98276.72;1790062;79;21541;-42
2021/01/15 00:59:05;;;;;;;;;;;;;;;-3.04;62.07;98280.70;1781987;79;21076;-43
2021/01/15 01:01:37;;;;;;;17.20;9.85;;;;;;;-3.05;62.34;98280.48;1788173;78;20192;-43
2021/01/15 01:04:07;;;;;;;16.37;9.45;;;;;;;-3.10;62.57;98277.39;1769884;79;21103;-43
2021/01/15 01:06:35;;;;;;;19.87;10.63;;;;;;;-2.98;62.69;98278.20;1783419;79;21374;-42
2021/01/15 01:09:04;;;;;;;18.92;10.15;;;;;;;-2.85;62.09;98283.47;1782739;79;21565;-43
2021/01/15 01:11:33;;;;;;;20.12;10.82;;;;;;;-2.77;61.65;98283.33;1795092;79;21151;-42
2021/01/15 01:14:01;;;;;;;16.82;10.08;;;;;;;-2.76;61.80;98284.90;1796531;79;20965;-42
2021/01/15 01:16:31;;;;;;;17.82;10.03;;;;;;;-2.79;61.62;98293.44;1784456;78;21585;-42
2021/01/15 01:18:59;;;;;;;14.68;8.78;;;;;;;-2.78;61.45;98288.38;1783207;79;22255;-43
2021/01/15 01:21:27;;;;;;;16.32;9.30;;;;;;;-2.80;61.00;98293.19;1796849;79;21108;-42
2021/01/15 01:23:55;;;;;;;16.27;9.50;;;;;;;-2.86;61.31;98283.79;1788462;79;21106;-43
2021/01/15 01:26:25;;;;;;;13.83;8.65;;;;;;;-2.81;61.59;98286.34;1737055;80;21174;-42
2021/01/15 01:28:53;;;;;;;16.02;9.18;;;;;;;-2.69;61.34;98297.98;1747105;80;21143;-42
2021/01/15 01:31:22;;;;;;;16.73;9.38;;;;;;;-2.67;61.01;98297.16;1755519;81;21419;-43
2021/01/15 01:33:50;;;;;;;14.07;8.40;;;;;;;-2.72;61.43;98297.80;1743271;80;21140;-43
2021/01/15 01:36:19;;;;;;;17.12;9.13;;;;;;;-2.74;61.37;98298.63;1756625;80;21163;-43
2021/01/15 01:38:47;;;;;;;13.62;8.70;;;;;;;-2.75;61.36;98292.53;1752128;80;21155;-42
2021/01/15 01:41:15;;;;;;;16.27;9.13;;;;;;;-2.77;61.54;98299.23;1738607;80;21135;-43
2021/01/15 01:43:44;;;;;;;15.15;8.23;;;;;;;-2.75;61.50;98301.03;1735856;81;21218;-42
2021/01/15 01:46:12;;;;;;;15.85;9.25;;;;;;;-2.74;61.38;98298.63;1736830;81;21229;-42
2021/01/15 01:48:41;;;;;;;14.73;8.43;;;;;;;-2.74;61.50;98302.07;1760259;81;21429;-43
2021/01/15 01:51:11;;;;;;;14.47;8.43;;;;;;;-2.69;61.04;98311.78;1735126;81;21615;-43
2021/01/15 01:53:42;;;;;;;12.77;7.80;;;;;;;-2.90;60.61;98306.66;1737201;82;21167;-43
2021/01/15 01:56:10;;;;;;;10.38;6.33;;;;;;;-3.04;61.02;98313.84;1741547;80;21202;-42
2021/01/15 01:58:39;;;;;;;13.15;7.42;;;;;;;-3.10;60.99;98315.27;1765006;81;21116;-43
2021/01/15 02:01:08;;;;;;;14.05;7.75;;;;;;;-3.28;60.92;98318.81;1737365;82;21113;-43
2021/01/15 02:03:36;;;;;;;11.35;7.33;;;;;;;-3.35;61.41;98317.64;1741465;80;21167;-42
2021/01/15 02:06:05;;;;;;;12.37;6.92;;;;;;;-3.36;61.33;98316.06;1741758;80;21174;-42
2021/01/15 02:08:33;;;;;;;15.78;7.62;;;;;;;-3.40;61.17;98323.83;1797101;79;21386;-42
2021/01/15 02:11:28;;;;;;;13.15;6.85;;;;;;;-3.48;61.25;98328.45;1769055;79;21633;-42
2021/01/15 02:14:25;;;;;;;13.62;7.42;;;;;;;-3.55;61.14;98326.75;1718438;82;21171;-43
2021/01/15 02:16:53;;;;;;;14.40;8.05;;;;;;;-3.64;61.30;98325.31;1709095;83;21189;-44
2021/01/15 02:20:04;;;;;;;14.80;8.28;;;;;;;-3.68;61.70;98332.81;1747813;81;21146;-44
2021/01/15 02:22:55;;;;;;;;;;;;;;;-3.68;61.87;98334.90;1697027;83;21212;-44
2021/01/15 02:25:57;;;;;;;14.07;7.50;;;;;;;-3.69;61.57;98344.48;1785780;79;20288;-44
2021/01/15 02:29:11;;;;;;;16.57;8.43;;;;;;;-3.75;61.40;98336.37;1782733;79;21003;-43
2021/01/15 02:32:07;;;;;;;13.62;7.60;;;;;;;-3.71;61.53;98343.44;1782742;79;21131;-44
2021/01/15 02:34:59;;;;;;;13.50;7.85;;;;;;;-3.72;61.46;98345.05;1712709;83;21115;-43
2021/01/15 02:37:59;;;;;;;14.98;8.08;;;;;;;-3.75;61.51;98342.98;1741794;82;22281;-43
2021/01/15 02:40:46;;;;;;;15.28;7.62;;;;;;;-3.75;61.69;98341.13;1682785;84;21194;-44
2021/01/15 02:43:15;;;;;;;18.30;8.38;;;;;;;-3.67;61.68;98344.95;1720722;82;21194;-43
2021/01/15 02:45:44;;;;;;;;;;;;;;;-3.67;61.41;98351.58;1781160;79;21032;-43
2021/01/15 02:48:15;;;;;;;11.70;6.35;;;;;;;-4.07;60.96;98357.02;1783289;79;20320;-43
2021/01/15 02:50:48;;;;;;;12.88;6.10;;;;;;;-4.07;60.96;98357.02;1787052;79;21351;-43
2021/01/15 02:53:17;;;;;;;11.90;6.75;;;;;;;-4.21;60.74;98357.50;1773501;79;21122;-43
2021/01/15 02:55:45;;;;;;;14.30;6.95;;;;;;;-4.38;61.44;98369.89;1778782;79;21533;-43
2021/01/15 02:58:14;;;;;;;14.55;7.70;;;;;;;-4.42;61.39;98365.72;1788452;79;21746;-43
2021/01/15 03:00:42;;;;;;;13.22;7.30;;;;;;;-4.38;61.53;98369.89;1779251;79;21182;-43
2021/01/15 03:03:31;;;;;;;15.90;6.92;;;;;;;-4.43;61.48;98376.58;1795615;79;21426;-43
2021/01/15 03:06:13;;;;;;;13.93;7.25;;;;;;;-4.39;61.24;98374.93;1795601;79;21114;-43
2021/01/15 03:08:41;;;;;;;13.85;7.37;;;;;;;-4.43;61.40;98364.67;1786959;79;21108;-44
2021/01/15 03:11:09;;;;;;;16.07;7.60;;;;;;;-4.43;61.40;98364.67;1801230;78;21134;-43
2021/01/15 03:13:37;;;;;;;12.63;7.83;;;;;;;-4.42;61.60;98372.33;1748770;80;21094;-44
2021/01/15 03:16:06;;;;;;;14.20;7.65;;;;;;;-4.35;61.87;98377.25;1787163;78;21362;-43
2021/01/15 03:18:34;;;;;;;13.13;7.35;;;;;;;-4.23;61.77;98377.63;1804253;78;21617;-43
2021/01/15 03:21:03;;;;;;;12.20;7.42;;;;;;;-4.08;60.99;98369.46;1800407;78;21184;-43
2021/01/15 03:23:38;;;;;;;12.10;6.97;;;;;;;-4.08;60.99;98369.46;1748169;80;21023;-43
2021/01/15 03:26:07;;;;;;;11.18;6.95;;;;;;;-4.11;60.88;98371.34;1807392;78;21185;-43
2021/01/15 03:28:36;;;;;;;11.93;7.03;;;;;;;-4.20;60.80;98371.75;1805274;79;21593;-43
2021/01/15 03:31:05;;;;;;;12.88;7.33;;;;;;;-4.21;60.36;98375.45;1799419;78;21139;-43
2021/01/15 03:33:33;;;;;;;12.05;6.95;;;;;;;-4.29;60.32;98373.47;1793411;79;21043;-43
2021/01/15 03:36:01;;;;;;;12.95;7.40;;;;;;;-4.27;59.82;98386.42;1806052;78;21158;-43
2021/01/15 03:38:31;;;;;;;16.93;8.30;;;;;;;-4.29;59.95;98379.30;1803835;78;21105;-43
2021/01/15 03:41:00;;;;;;;;;;;;;;;-4.38;60.14;98372.55;1807715;78;21381;-43
2021/01/15 03:43:31;;;;;;;14.45;7.95;;;;;;;-4.23;59.71;98383.45;1807290;78;20276;-43
2021/01/15 03:45:59;;;;;;;15.05;7.58;;;;;;;-4.24;59.80;98390.59;1811873;78;21048;-43
2021/01/15 03:48:28;;;;;;;15.55;7.67;;;;;;;-4.21;59.64;98386.05;1735522;82;21063;-43
2021/01/15 03:50:57;;;;;;;13.28;7.50;;;;;;;-4.08;59.66;98379.27;1760251;80;21177;-43
2021/01/15 03:53:25;;;;;;;13.78;7.45;;;;;;;-4.08;59.57;98376.61;1806646;79;21284;-43
2021/01/15 03:55:54;;;;;;;14.75;7.75;;;;;;;-4.07;59.45;98380.30;1799665;79;21044;-43
2021/01/15 03:58:22;;;;;;;14.70;7.55;;;;;;;-4.12;59.24;98383.03;1748518;82;21177;-43
2021/01/15 04:00:51;;;;;;;12.73;7.37;;;;;;;-4.21;59.23;98390.58;1751098;80;21110;-43
2021/01/15 04:03:20;;;;;;;13.43;7.50;;;;;;;-4.47;59.07;98395.42;1773189;80;21158;-43
2021/01/15 04:05:48;;;;;;;16.20;8.48;;;;;;;-4.69;59.73;98399.13;1778169;80;21391;-43
2021/01/15 04:08:16;;;;;;;12.13;6.70;;;;;;;-4.69;60.09;98395.95;1755269;80;21186;-43
2021/01/15 04:10:45;;;;;;;14.75;8.08;;;;;;;-4.66;59.91;98402.02;1797596;79;21107;-43
2021/01/15 04:13:14;;;;;;;11.68;6.78;;;;;;;-4.70;60.18;98401.54;1727744;81;21159;-43
2021/01/15 04:15:42;;;;;;;15.08;8.20;;;;;;;-4.70;60.33;98409.47;1718844;82;21152;-43
2021/01/15 04:18:12;;;;;;;12.50;7.87;;;;;;;-4.70;60.33;98409.47;1707520;82;21340;-43
2021/01/15 04:20:40;;;;;;;15.23;7.62;;;;;;;-4.69;59.98;98414.98;1754962;81;21182;-45
2021/01/15 04:24:05;;;;;;;15.70;8.13;;;;;;;-4.65;60.04;98418.67;1761785;79;22380;-44
2021/01/15 04:26:34;;;;;;;15.38;7.90;;;;;;;-4.70;59.94;98420.84;1725186;82;21031;-43
2021/01/15 04:29:03;;;;;;;13.95;7.78;;;;;;;-4.59;60.09;98415.66;1738437;82;21373;-43
2021/01/15 04:31:33;;;;;;;17.95;8.23;;;;;;;-4.59;60.09;98415.66;1722794;82;21055;-44
2021/01/15 04:34:02;;;;;;;14.47;8.30;;;;;;;-4.44;59.93;98419.97;1722534;82;21313;-43
2021/01/15 04:36:37;;;;;;;14.07;7.90;;;;;;;-4.29;60.15;98425.59;1725211;82;20984;-43
2021/01/15 04:39:05;;;;;;;15.32;8.10;;;;;;;-4.24;59.55;98420.23;1724271;82;21008;-44
2021/01/15 04:41:33;;;;;;;12.00;7.70;;;;;;;-4.18;59.21;98430.48;1719272;82;21374;-44
2021/01/15 04:44:03;;;;;;;11.60;7.25;;;;;;;-4.29;58.66;98431.68;1718889;82;21027;-43
2021/01/15 04:46:31;;;;;;;16.48;8.13;;;;;;;-4.59;59.00;98438.67;1721583;82;21024;-43
2021/01/15 04:48:59;;;;;;;15.03;8.68;;;;;;;-4.84;59.50;98438.42;1689680;82;21624;-43
2021/01/15 04:51:27;;;;;;;13.65;7.67;;;;;;;-4.98;60.37;98431.70;1727333;82;21641;-44
2021/01/15 04:54:00;;;;;;;12.35;6.85;;;;;;;-4.91;59.92;98441.42;1746981;82;21385;-43
2021/01/15 04:56:41;;;;;;;13.90;7.62;;;;;;;-4.98;59.54;98443.60;1728099;82;21167;-43
2021/01/15 04:59:09;;;;;;;10.68;6.03;;;;;;;-5.03;59.85;98448.14;1742798;82;21043;-43
2021/01/15 05:01:46;;;;;;;11.95;7.33;;;;;;;-4.97;60.02;98449.14;1707114;82;21163;-43
2021/01/15 05:04:18;;;;;;;11.20;6.95;;;;;;;-4.92;59.47;98451.73;1740986;82;21174;-43
2021/01/15 05:06:49;;;;;;;14.85;7.50;;;;;;;-4.91;59.18;98450.67;1721189;82;22129;-44
2021/01/15 05:09:22;;;;;;;16.40;7.58;;;;;;;-4.95;59.61;98450.98;1725554;82;21158;-43
2021/01/15 05:11:51;;;;;;;12.43;7.28;;;;;;;-4.93;59.25;98454.12;1730609;82;21578;-43
2021/01/15 05:14:21;;;;;;;17.27;7.10;;;;;;;-4.93;59.25;98454.12;1738563;82;21031;-43
2021/01/15 05:16:50;;;;;;;;;;;;;;;-4.93;59.29;98452.01;1749465;82;21115;-43
2021/01/15 05:19:18;;;;;;;12.75;7.20;;;;;;;-5.05;59.58;98459.02;1719563;82;21205;-43
2021/01/15 05:21:50;;;;;;;11.60;6.70;;;;;;;-5.05;59.58;98459.02;1736336;82;21162;-43
2021/01/15 05:24:19;;;;;;;14.18;8.18;;;;;;;-5.09;59.50;98459.33;1747621;81;21173;-43
2021/01/15 05:26:47;;;;;;;15.60;8.38;;;;;;;-5.11;60.26;98465.94;1740746;82;21185;-43
2021/01/15 05:29:16;;;;;;;13.48;7.40;;;;;;;-5.11;60.26;98465.94;1742518;82;21174;-43
2021/01/15 05:31:59;;;;;;;17.62;8.18;;;;;;;-5.07;60.50;98467.75;1732943;82;21174;-43
2021/01/15 05:34:28;;;;;;;14.00;7.80;;;;;;;-4.92;60.49;98469.45;1719706;82;21170;-43
2021/01/15 05:36:57;;;;;;;15.75;7.72;;;;;;;-4.76;60.53;98475.38;1726586;82;21146;-44
2021/01/15 05:39:27;;;;;;;15.03;8.90;;;;;;;-4.65;60.21;98476.84;1742401;80;21111;-44
2021/01/15 05:42:02;;;;;;;18.48;8.98;;;;;;;-4.61;59.73;98481.28;1746238;82;21127;-43
2021/01/15 05:44:32;;;;;;;13.88;8.08;;;;;;;-4.64;59.61;98488.97;1720993;82;22280;-43
2021/01/15 05:47:01;;;;;;;14.75;7.58;;;;;;;-4.79;59.24;98489.16;1724332;82;21150;-44
2021/01/15 05:49:31;;;;;;;15.05;8.38;;;;;;;-4.96;59.64;98486.94;1740591;82;21118;-43
2021/01/15 05:52:08;;;;;;;15.10;8.78;;;;;;;-4.96;59.64;98486.94;1724740;82;21171;-43
2021/01/15 05:54:37;;;;;;;13.95;7.90;;;;;;;-4.99;59.56;98492.27;1719193;82;21048;-43
2021/01/15 05:57:06;;;;;;;12.78;8.10;;;;;;;-5.04;59.15;98498.92;1719064;82;21276;-43
2021/01/15 05:59:38;;;;;;;14.98;8.45;;;;;;;-5.11;59.19;98508.22;1730705;82;21197;-43
2021/01/15 06:02:07;;;;;;;13.08;7.80;;;;;;;-5.09;58.23;98512.70;1719880;82;21653;-43
2021/01/15 06:04:39;;;;;;;16.73;8.77;;;;;;;-5.09;58.23;98512.70;1719754;82;21217;-44
2021/01/15 06:07:12;;;;;;;14.40;7.85;;;;;;;-5.22;58.49;98514.64;1723560;82;21580;-43
2021/01/15 06:09:42;;;;;;;14.03;7.80;;;;;;;-5.24;58.68;98518.12;1718956;82;21374;-43
2021/01/15 06:12:18;;;;;;;11.15;7.83;;;;;;;-5.15;58.86;98519.88;1746918;82;21618;-43
2021/01/15 06:14:49;;;;;;;14.60;7.62;;;;;;;-5.13;58.36;98523.02;1726822;82;21397;-44
2021/01/15 06:17:21;;;;;;;10.98;6.62;;;;;;;-5.23;57.43;98529.73;1719579;82;21193;-42
2021/01/15 06:20:04;;;;;;;12.63;7.80;;;;;;;-5.23;57.43;98529.73;1719180;82;21158;-44
2021/01/15 06:22:44;;;;;;;13.08;6.85;;;;;;;-5.39;57.59;98530.37;1733364;82;22281;-42
2021/01/15 06:25:24;;;;;;;16.40;7.72;;;;;;;-5.47;57.12;98536.23;1720629;82;21194;-43
2021/01/15 06:27:55;;;;;;;18.12;8.45;;;;;;;-5.60;57.84;98537.38;1742428;82;21180;-43
2021/01/15 06:30:29;;;;;;;13.40;7.67;;;;;;;-5.64;58.23;98543.75;1719650;82;21221;-43
2021/01/15 06:33:08;;;;;;;14.43;7.65;;;;;;;-5.59;58.45;98546.36;1719233;82;21199;-43
2021/01/15 06:35:38;;;;;;;14.65;8.60;;;;;;;-5.50;58.64;98546.03;1727360;82;26976;-43
2021/01/15 06:38:11;;;;;;;17.60;8.13;;;;;;;-5.41;58.28;98548.34;1735300;82;21174;-43
2021/01/15 06:40:49;;;;;;;18.82;9.95;;;;;;;-5.33;57.50;98550.95;1698210;83;21636;-43
2021/01/15 06:43:28;;;;;;;17.20;9.05;;;;;;;-5.35;57.79;98551.73;1714675;83;21143;-43
2021/01/15 06:46:01;;;;;;;12.50;6.35;;;;;;;-5.32;57.72;98563.06;1705300;83;21190;-43
2021/01/15 06:48:36;;;;;;;16.10;9.13;;;;;;;-5.30;57.55;98561.74;1695722;83;21182;-43
2021/01/15 06:51:07;;;;;;;17.02;8.73;;;;;;;-5.34;58.11;98559.93;1699151;83;21182;-43
2021/01/15 06:53:41;;;;;;;17.40;9.20;;;;;;;-5.29;57.94;98566.50;1704967;83;21012;-42
2021/01/15 06:56:15;;;;;;;16.93;9.28;;;;;;;-5.19;58.01;98574.34;1717513;83;21170;-43
2021/01/15 06:58:44;;;;;;;15.23;9.00;;;;;;;-5.11;57.52;98573.75;1709895;83;21186;-44
2021/01/15 07:01:26;;;;;;;15.90;8.08;;;;;;;-5.02;57.37;98580.02;1704177;82;21205;-44
2021/01/15 07:04:26;;;;;;;14.23;8.50;;;;;;;-5.00;57.12;98573.94;1683497;83;21549;-44
2021/01/15 07:07:12;;;;;;;11.40;6.23;;;;;;;-4.98;57.09;98580.24;1699512;83;21170;-45
2021/01/15 07:09:46;;;;;;;12.65;6.40;;;;;;;-4.99;56.36;98583.98;1703822;83;21131;-45
2021/01/15 07:12:18;;;;;;;13.22;8.00;;;;;;;-5.19;56.42;98584.13;1647728;86;21634;-45
2021/01/15 07:14:56;;;;;;;14.73;7.80;;;;;;;-5.34;57.26;98579.73;1704591;83;21216;-44
2021/01/15 07:17:34;;;;;;;10.58;6.30;;;;;;;-5.35;57.17;98582.12;1691120;83;21170;-45
2021/01/15 07:20:17;;;;;;;14.05;8.25;;;;;;;-5.45;57.35;98594.06;1699105;83;21126;-45
2021/01/15 07:22:57;;;;;;;14.43;7.35;;;;;;;-5.50;56.99;98597.53;1718644;83;21174;-44
2021/01/15 07:25:26;;;;;;;11.22;6.15;;;;;;;-5.61;56.13;98615.01;1718691;83;21607;-45
2021/01/15 07:27:56;;;;;;;15.55;7.85;;;;;;;-5.61;56.13;98615.01;1712745;83;21309;-44
2021/01/15 07:30:29;;;;;;;13.93;7.08;;;;;;;-5.68;56.50;98617.97;1705385;83;21214;-45
2021/01/15 07:32:58;;;;;;;12.90;7.58;;;;;;;-5.64;56.29;98621.64;1704639;83;21585;-44
2021/01/15 07:35:30;;;;;;;12.07;6.83;;;;;;;-5.68;55.91;98615.86;1690455;83;21150;-43
2021/01/15 07:38:16;;;;;;;13.62;6.85;;;;;;;-5.72;56.06;98626.97;1659134;84;21190;-44
2021/01/15 07:40:45;;;;;;;13.32;7.00;;;;;;;-5.66;55.97;98633.55;1690013;84;21221;-43
2021/01/15 07:43:35;;;;;;;13.62;7.10;;;;;;;-5.68;55.89;98636.97;1690767;83;21505;-43
2021/01/15 07:46:05;;;;;;;13.68;8.03;;;;;;;-5.73;56.08;98635.15;1708637;83;21645;-44
2021/01/15 07:48:34;;;;;;;16.42;8.15;;;;;;;-5.81;57.13;98637.80;1717510;83;21605;-44
2021/01/15 07:51:14;;;;;;;14.18;7.60;;;;;;;-5.75;57.16;98637.26;1699192;83;21508;-43
2021/01/15 07:53:45;;;;;;;16.90;8.30;;;;;;;-5.70;56.96;98651.23;1698131;83;21231;-44
2021/01/15 07:56:13;;;;;;;12.27;7.17;;;;;;;-5.64;57.10;98650.68;1707232;83;21086;-45
2021/01/15 07:58:45;;;;;;;16.95;8.80;;;;;;;-5.50;56.20;98654.31;1643584;84;21145;-44
2021/01/15 08:01:19;;;;;;;14.43;8.20;;;;;;;-5.47;56.16;98649.03;1704686;83;21016;-45
2021/01/15 08:03:56;;;;;;;14.35;7.72;;;;;;;-5.43;56.18;98647.42;1701847;83;21199;-44
2021/01/15 08:06:26;;;;;;;14.00;8.30;;;;;;;-5.42;55.51;98652.97;1716302;83;21234;-44
2021/01/15 08:09:03;;;;;;;15.95;8.63;;;;;;;-5.41;55.78;98653.20;1718867;83;21726;-44
2021/01/15 08:11:33;;;;;;;19.70;10.48;;;;;;;-5.33;55.61;98659.25;1700890;83;21140;-44
2021/01/15 08:14:17;;;;;;;16.37;9.15;;;;;;;-5.26;55.70;98661.84;1691148;83;21759;-44
2021/01/15 08:16:47;;;;;;;15.05;6.92;;;;;;;-5.16;55.20;98669.44;1691072;83;21179;-44
2021/01/15 08:19:18;;;;;;;19.10;9.78;;;;;;;-5.16;55.20;98669.44;1693449;82;21465;-44
2021/01/15 08:21:46;;;;;;;20.90;9.48;;;;;;;-5.14;55.09;98669.44;1705096;83;21637;-44
2021/01/15 08:24:14;;;;;;;15.90;9.45;;;;;;;-5.15;54.79;98682.39;1687292;83;21189;-44
2021/01/15 08:26:50;;;;;;;20.85;9.98;;;;;;;-5.11;55.28;98683.41;1695186;83;21192;-44
2021/01/15 08:31:59;;;;;;;16.37;9.38;;;;;;;-5.09;55.26;98684.47;1813959;78;22527;-42
2021/01/15 08:34:33;;;;;;;17.00;9.50;;;;;;;-5.00;55.58;98682.30;1807012;77;21036;-42
2021/01/15 08:37:04;;;;;;;18.27;8.80;;;;;;;-4.86;55.34;98679.29;1763927;80;21410;-42
2021/01/15 08:39:55;;;;;;;21.02;9.58;;;;;;;-4.71;54.62;98684.20;1749921;80;21167;-42
2021/01/15 08:42:24;;;;;;;16.57;10.08;;;;;;;-4.65;54.53;98683.11;1773031;80;21001;-42
2021/01/15 08:44:52;;;;;;;15.50;8.78;;;;;;;-4.71;54.57;98682.88;1749030;82;21674;-43
2021/01/15 08:47:21;;;;;;;18.85;8.55;;;;;;;-4.63;53.89;98685.72;1778627;80;21628;-42
2021/01/15 08:49:59;;;;;;;14.63;7.33;;;;;;;-4.63;54.21;98684.39;1764903;80;21436;-42
2021/01/15 08:52:32;;;;;;;18.75;9.18;;;;;;;-4.64;54.30;98683.34;1770743;80;21008;-43
2021/01/15 08:55:03;;;;;;;15.25;8.60;;;;;;;-4.72;54.34;98685.27;1769401;80;21025;-42
2021/01/15 08:57:32;;;;;;;16.87;8.68;;;;;;;-4.78;54.63;98683.72;1748680;82;21527;-42
2021/01/15 09:00:12;;;;;;;17.10;8.75;;;;;;;-4.64;54.85;98692.59;1764932;80;21143;-42
2021/01/15 09:02:42;;;;;;;14.00;8.60;;;;;;;-4.64;54.85;98692.59;1762008;80;21327;-42
2021/01/15 09:05:21;;;;;;;15.88;9.23;;;;;;;-4.40;54.66;98696.10;1748638;81;21197;-43
2021/01/15 09:07:51;;;;;;;14.30;7.20;;;;;;;-4.29;52.43;98684.90;1746507;81;21118;-43
2021/01/15 09:10:19;;;;;;;;;;;;;;;-4.29;52.43;98684.90;1732833;81;21136;-42
2021/01/15 09:12:49;;;;;;;13.70;7.90;;;;;;;-4.47;53.30;98696.44;1764116;81;20242;-42
2021/01/15 09:15:28;;;;;;;15.83;8.35;;;;;;;-4.68;53.64;98695.55;1753708;81;21206;-42
2021/01/15 09:17:59;;;;;;;14.40;7.70;;;;;;;-4.73;54.03;98715.41;1763157;81;21597;-42
2021/01/15 09:20:30;;;;;;;14.70;7.83;;;;;;;-4.73;54.03;98715.41;1730578;81;21206;-42
2021/01/15 09:22:58;;;;;;;11.22;6.87;;;;;;;-4.68;53.67;98706.12;1753241;81;21154;-42
2021/01/15 09:25:27;;;;;;;13.13;8.30;;;;;;;-4.75;52.43;98703.02;1757764;81;21130;-42
2021/01/15 09:27:56;;;;;;;9.98;6.58;;;;;;;-5.01;52.69;98705.03;1750488;80;21249;-41
2021/01/15 09:30:25;;;;;;;11.80;6.90;;;;;;;-5.24;53.30;98701.20;1754201;81;21186;-43
2021/01/15 09:32:53;;;;;;;8.87;5.23;;;;;;;-5.24;53.30;98701.20;1721950;83;20980;-42
2021/01/15 09:35:21;;;;;;;15.05;6.95;;;;;;;-5.42;52.76;98693.34;1721735;83;21055;-42
2021/01/15 09:37:50;;;;;;;12.18;7.17;;;;;;;-5.42;52.76;98693.34;1724834;81;20990;-41
2021/01/15 09:40:18;;;;;;;12.03;7.15;;;;;;;-5.43;53.19;98700.23;1716390;81;21346;-42
2021/01/15 09:42:54;;;;;;;11.20;6.70;;;;;;;-5.05;53.73;98700.03;1733972;82;21167;-42
2021/01/15 09:45:23;;;;;;;13.18;7.92;;;;;;;-5.05;53.73;98700.03;1726295;82;21154;-42
2021/01/15 09:47:55;;;;;;;11.80;7.33;;;;;;;-4.72;53.79;98695.84;1723524;81;21612;-42
2021/01/15 09:50:24;;;;;;;12.47;7.67;;;;;;;-4.45;53.11;98702.75;1771583;79;21821;-42
2021/01/15 09:52:52;;;;;;;15.48;7.90;;;;;;;-4.24;52.54;98702.05;1772407;79;21196;-42
2021/01/15 09:55:22;;;;;;;11.10;7.08;;;;;;;-4.14;50.67;98694.81;1799527;79;21138;-41
2021/01/15 09:57:50;;;;;;;11.88;7.22;;;;;;;-4.16;50.86;98698.27;1734130;82;26038;-42
2021/01/15 10:00:20;;;;;;;11.85;6.97;;;;;;;-4.39;51.16;98703.77;1795471;79;21548;-42
2021/01/15 10:02:48;;;;;;;12.60;7.33;;;;;;;-4.60;51.16;98704.98;1795807;79;21131;-42
2021/01/15 10:05:18;;;;;;;12.50;7.15;;;;;;;-4.83;52.54;98700.41;1797813;79;21195;-42
2021/01/15 10:07:48;;;;;;;15.50;8.48;;;;;;;-4.83;52.54;98700.41;1770936;79;20989;-43
2021/01/15 10:10:16;;;;;;;17.12;9.33;;;;;;;-4.68;53.58;98705.59;1794672;79;21645;-42
2021/01/15 10:12:48;;;;;;;14.20;8.00;;;;;;;-4.53;54.00;98691.46;1803300;79;21150;-42
2021/01/15 10:15:17;;;;;;;15.38;8.63;;;;;;;-4.26;53.34;98695.70;1777934;79;21561;-41
2021/01/15 10:17:46;;;;;;;9.73;6.25;;;;;;;-4.04;52.73;98698.69;1802621;79;21191;-42
2021/01/15 10:20:18;;;;;;;14.53;6.92;;;;;;;-3.95;53.49;98697.00;1802113;79;21617;-42
2021/01/15 10:22:48;;;;;;;11.83;7.20;;;;;;;-3.84;53.44;98700.34;1798706;79;20984;-42
2021/01/15 10:25:16;;;;;;;12.13;6.58;;;;;;;-3.86;53.47;98692.41;1725985;81;21645;-42
2021/01/15 10:27:45;;;;;;;15.18;7.60;;;;;;;-3.92;52.91;98696.96;1745529;81;21183;-42
2021/01/15 10:30:16;;;;;;;11.03;6.95;;;;;;;-4.09;53.67;98686.03;1749497;81;21222;-42
2021/01/15 10:32:47;;;;;;;11.75;7.12;;;;;;;-4.09;53.67;98686.03;1795463;79;21850;-43
2021/01/15 10:35:16;;;;;;;11.70;7.53;;;;;;;-3.99;51.93;98691.23;1790552;79;21149;-42
2021/01/15 10:37:45;;;;;;;11.88;6.78;;;;;;;-4.03;52.93;98687.03;1791924;79;21161;-44
2021/01/15 10:40:14;;;;;;;12.47;7.73;;;;;;;-3.85;53.13;98687.38;1789368;78;21163;-43
2021/01/15 10:42:44;;;;;;;10.23;6.05;;;;;;;-3.66;51.72;98688.22;1800039;79;21186;-43
2021/01/15 10:45:14;;;;;;;10.25;5.83;;;;;;;-3.64;51.62;98686.88;1775631;79;21052;-44
2021/01/15 10:47:48;;;;;;;8.73;5.30;;;;;;;-3.61;52.14;98684.97;1793844;79;21708;-44
2021/01/15 10:50:17;;;;;;;11.93;6.90;;;;;;;-3.50;51.77;98688.30;1738039;82;21209;-44
2021/01/15 10:52:53;;;;;;;10.58;7.17;;;;;;;-3.56;50.53;98685.45;1745614;81;21641;-43
2021/01/15 10:55:26;;;;;;;;;;;;;;;-3.74;50.69;98676.92;1758652;81;22493;-43
2021/01/15 10:57:59;;;;;;;10.05;6.40;;;;;;;-3.85;51.23;98676.78;1724153;82;20499;-43
2021/01/15 11:00:28;;;;;;;11.55;6.78;;;;;;;-3.92;51.10;98676.34;1731628;82;21001;-43
2021/01/15 11:02:56;;;;;;;10.50;6.62;;;;;;;-4.00;50.18;98675.08;1728282;82;21426;-43
2021/01/15 11:05:27;;;;;;;10.35;6.45;;;;;;;-4.00;50.18;98675.08;1731063;82;21199;-43
2021/01/15 11:07:55;;;;;;;12.50;6.30;;;;;;;-4.19;50.63;98661.78;1734565;82;21380;-44
2021/01/15 11:10:24;;;;;;;8.20;5.20;;;;;;;-4.04;51.00;98679.36;1742541;81;21704;-44
2021/01/15 11:12:59;;;;;;;10.35;5.95;;;;;;;-3.92;49.92;98679.75;1768418;81;21151;-43
2021/01/15 11:15:27;;;;;;;10.80;7.22;;;;;;;-3.99;49.18;98673.48;1731470;82;21021;-43
2021/01/15 11:17:56;;;;;;;14.47;8.18;;;;;;;-4.14;50.45;98684.23;1737904;82;21134;-44
2021/01/15 11:20:24;;;;;;;11.57;6.78;;;;;;;-4.18;51.24;98681.09;1729000;82;21381;-44
2021/01/15 11:22:53;;;;;;;10.25;6.53;;;;;;;-4.08;51.77;98693.70;1750089;81;21186;-43
2021/01/15 11:25:25;;;;;;;10.53;6.28;;;;;;;-3.97;52.11;98693.83;1743985;82;21166;-43
2021/01/15 11:27:53;;;;;;;11.80;6.12;;;;;;;-3.84;51.35;98690.28;1726476;81;21119;-44
2021/01/15 11:30:25;;;;;;;12.23;5.92;;;;;;;-3.95;51.14;98697.00;1699402;84;21543;-43
2021/01/15 11:32:55;;;;;;;10.35;6.10;;;;;;;-4.20;51.96;98694.60;1720600;81;26660;-43
2021/01/15 11:35:25;;;;;;;9.70;6.45;;;;;;;-4.29;52.70;98687.02;1786191;78;21168;-43
2021/01/15 11:38:00;;;;;;;9.18;6.03;;;;;;;-4.45;53.33;98693.50;1784247;79;21131;-43
2021/01/15 11:40:29;;;;;;;10.08;5.42;;;;;;;-4.59;54.07;98694.67;1784875;78;21008;-43
2021/01/15 11:42:58;;;;;;;9.25;5.87;;;;;;;-4.75;54.85;98689.27;1788378;79;21192;-43
2021/01/15 11:45:28;;;;;;;9.50;6.00;;;;;;;-4.83;55.06;98690.63;1800377;78;21585;-44
2021/01/15 11:47:57;;;;;;;10.28;5.95;;;;;;;-4.96;55.31;98693.10;1727832;82;21139;-44
2021/01/15 11:50:49;;;;;;;8.58;4.90;;;;;;;-5.01;55.89;98701.85;1733106;81;21048;-44
2021/01/15 11:53:23;;;;;;;12.60;6.20;;;;;;;-5.08;55.94;98702.67;1728032;82;21708;-43